This is the latest recevied weather packets stored in our database for station/object OE-11331. If no packets are shown the sender has not sent any weather packets the latest 10 day(s).
| Time | Temp. | Humidity | Pressure | Rain* | Wind** | Luminosity | Snow |
|---|---|---|---|---|---|---|---|
| 1787812907 | 20° C | 81% | 1017.7 hPa | 0 mm | - | 314 W/m² | - |
| 1787812534 | 18.89° C | 82% | 1018 hPa | 0 mm | - | 281 W/m² | - |
| 1787811934 | 18.89° C | 84% | 1018.1 hPa | 0 mm | - | 249 W/m² | - |
| 1787811346 | 17.78° C | 88% | 1018.4 hPa | 0 mm | - | 216 W/m² | - |
| 1787810734 | 17.22° C | 89% | 1018.4 hPa | 0 mm | - | 119 W/m² | - |
| 1787810134 | 17.22° C | 89% | 1018.4 hPa | 0 mm | - | 119 W/m² | - |
| 1787809307 | 16.67° C | 89% | 1018.5 hPa | 0 mm | - | 119 W/m² | - |
| 1787808934 | 16.67° C | 91% | 1018.6 hPa | 0 mm | - | 108 W/m² | - |
| 1787808334 | 16.67° C | 92% | 1018.6 hPa | 0 mm | - | 76 W/m² | - |
| 1787807507 | 16.11° C | 93% | 1018.6 hPa | 0 mm | - | 54 W/m² | - |
| 1787807134 | 16.11° C | 93% | 1018.6 hPa | 0 mm | - | 43 W/m² | - |
| 1787806534 | 16.11° C | 94% | 1018.7 hPa | 0 mm | - | 22 W/m² | - |
| 1787805705 | 15.56° C | 94% | 1018.4 hPa | 0 mm | - | 11 W/m² | - |
| 1787805334 | 15.56° C | 94% | 1018.3 hPa | 0 mm | - | 11 W/m² | - |
| 1787804734 | 15.56° C | 94% | 1018.2 hPa | 0 mm | - | 0 W/m² | - |
| 1787803907 | 16.11° C | 94% | 1018.2 hPa | 0 mm | - | 0 W/m² | - |
| 1787803534 | 16.11° C | 94% | 1018.3 hPa | 0 mm | - | 0 W/m² | - |
| 1787802934 | 16.11° C | 93% | 1018 hPa | 0 mm | - | 0 W/m² | - |
| 1787802334 | 16.11° C | 93% | 1017.9 hPa | 0 mm | - | 0 W/m² | - |
| 1787801734 | 16.11° C | 93% | 1018 hPa | 0 mm | - | 0 W/m² | - |
| 1787801134 | 16.11° C | 93% | 1018.1 hPa | 0 mm | - | 0 W/m² | - |
| 1787800307 | 16.11° C | 93% | 1018.1 hPa | 0 mm | - | 0 W/m² | - |
| 1787799934 | 16.67° C | 92% | 1018.2 hPa | 0 mm | - | 0 W/m² | - |
| 1787799334 | 16.67° C | 93% | 1018.3 hPa | 0 mm | - | 0 W/m² | - |
| 1787798506 | 16.67° C | 92% | 1018.2 hPa | 0 mm | - | 0 W/m² | - |
* Rain latest hour (hover to see other rain measurements)
** Current wind speed in m/s (hover to see current wind gust speed)